Tozeur, Tunisia
Current Conditions -  °F | °C
As of 12:00 AM on Sunday 26 Oct 2014 (Local Time) from DTTZ Reporting Station
Clear Clear  
Wind Chill: 68°   Ceiling: Unl
Heat Index: 68°   Visibility: 6mi
Dew Point: 45°   Wind: 5mph
Humidity: 43%   Direction: 300°WNW
Pressure: 30.12"   Gusts: NA
Location:  33.92°N, 8.13°E
Report Text: DTTZ 252300Z 30004KT CAVOK 20/07 Q1020 NOSIG
Loading
Personal Weather Stations






























Interactive Weather Map
Tropical Storm Tracking
New forecast layout! Learn more

10-Day Weather Forecast

Advertisements
Track Severe Weather on mobile